Terminal Aerodrome Forecast
Issued by NWS

Home | Current Version | Previous Version | Text Only | Print | Product List | Glossary On
Versions: 1 2 3 4 5 6 7 8 9 10 11 12 13 14
000
FTUS45 KGJT 222337
TAFTEX
TAF
KTEX 222337Z 2300/2324 15006KT P6SM VCTS BKN070CB
      TEMPO 2300/2303 VRB10G20KT -TSRA BKN060CB
     FM230300 13006KT P6SM VCSH BKN130
     FM230600 16005KT P6SM SCT150
     FM231700 28004KT P6SM SCT150
     FM231900 27006KT P6SM BKN140=

USA.gov is the U.S. government's official web portal to all federal, state and local government web resources and services.